Time;durP1;ratioP1;P1;durP2;ratioP2;P2;SDS_P1;SDS_P2;PMS_P1;PMS_P2;Temp;Humidity;BMP_temperature;BMP_pressure;BME280_temperature;BME280_humidity;BME280_pressure;Samples;Min_cycle;Max_cycle;Signal;HPM_P1;HPM_P2
2022/11/10 00:01:56;;;;;;;9.05;2.60;;;;;;;9.01;95.96;101590.16;5052350;28;20056;-78
2022/11/10 00:04:22;;;;;;;6.85;2.35;;;;;;;8.94;95.68;101583.69;5062030;28;20147;-78
2022/11/10 00:06:48;;;;;;;11.27;2.78;;;;;;;8.98;95.26;101600.69;5062071;28;20512;-78
2022/11/10 00:09:14;;;;;;;10.40;2.47;;;;;;;8.94;95.38;101591.44;5071553;28;20032;-78
2022/11/10 00:11:39;;;;;;;11.23;2.40;;;;;;;8.97;95.85;101588.69;5063366;28;20043;-78
2022/11/10 00:17:03;;;;;;;14.27;2.92;;;;;;;8.96;95.41;101596.53;5060242;28;20595;-78
2022/11/10 00:19:33;;;;;;;12.48;2.58;;;;;;;8.96;95.27;101597.38;5061323;28;20122;-78
2022/11/10 00:22:00;;;;;;;13.27;2.80;;;;;;;8.96;96.02;101602.53;5057499;28;20033;-78
2022/11/10 00:24:26;;;;;;;12.25;2.92;;;;;;;8.93;95.44;101597.56;5055717;28;20043;-78
2022/11/10 00:26:52;;;;;;;12.30;2.63;;;;;;;8.93;95.51;101604.47;5064023;28;20036;-78
2022/11/10 00:29:17;;;;;;;10.57;2.53;;;;;;;8.90;96.01;101608.09;5061596;28;20024;-78
2022/11/10 00:31:43;;;;;;;10.73;2.78;;;;;;;8.96;95.71;101612.06;5073755;28;20427;-78
2022/11/10 00:34:13;;;;;;;9.43;2.53;;;;;;;8.95;95.58;101611.25;5062377;28;20024;-79
2022/11/10 00:36:40;;;;;;;12.95;2.90;;;;;;;8.96;95.41;101612.91;5057041;28;20039;-78
2022/11/10 00:39:05;;;;;;;13.32;3.38;;;;;;;8.93;95.47;101613.06;5058973;28;20059;-78
2022/11/10 00:41:30;;;;;;;8.55;2.78;;;;;;;8.92;95.53;101616.59;5057440;28;20056;-78
2022/11/10 00:43:56;;;;;;;10.27;2.75;;;;;;;8.89;95.57;101616.81;5061772;28;20040;-78
2022/11/10 00:46:21;;;;;;;15.45;2.83;;;;;;;8.90;95.65;101623.63;5061038;28;20452;-78
2022/11/10 00:48:47;;;;;;;12.15;3.13;;;;;;;8.82;95.79;101607.72;5063974;28;20361;-78
2022/11/10 00:51:22;;;;;;;8.80;2.88;;;;;;;8.84;95.67;101616.25;5062884;28;20032;-78
2022/11/10 00:53:48;;;;;;;9.30;2.58;;;;;;;8.86;95.92;101624.72;5054732;28;20032;-78
2022/11/10 00:56:14;;;;;;;11.13;2.75;;;;;;;8.83;96.04;101624.06;5065201;28;20039;-77
2022/11/10 00:58:39;;;;;;;12.10;3.05;;;;;;;8.82;96.41;101625.84;5059290;28;20032;-80
2022/11/10 01:01:05;;;;;;;10.73;2.50;;;;;;;8.83;95.82;101632.69;5067753;28;21361;-78
2022/11/10 01:03:31;;;;;;;11.10;2.63;;;;;;;8.77;96.40;101627.88;5069044;28;20418;-78
2022/11/10 01:05:57;;;;;;;10.30;3.40;;;;;;;8.77;95.99;101623.56;5069749;28;20052;-78
2022/11/10 01:08:23;;;;;;;10.13;2.65;;;;;;;8.78;96.57;101637.31;5063937;28;20032;-77
2022/11/10 01:10:49;;;;;;;11.52;2.90;;;;;;;8.78;96.56;101650.25;5066488;28;20025;-78
2022/11/10 01:13:14;;;;;;;12.38;2.50;;;;;;;8.76;96.40;101649.50;5067817;28;20441;-78
2022/11/10 01:15:41;;;;;;;10.98;2.83;;;;;;;8.72;96.89;101650.63;5062973;28;20052;-78
2022/11/10 01:18:07;;;;;;;10.35;3.15;;;;;;;8.72;96.67;101672.16;5066736;28;20025;-78
2022/11/10 01:20:34;;;;;;;8.52;2.65;;;;;;;8.75;96.54;101671.13;5061576;28;20024;-78
2022/11/10 01:23:00;;;;;;;13.65;2.85;;;;;;;8.71;96.61;101669.63;5064823;28;20404;-78
2022/11/10 01:25:25;;;;;;;10.43;3.22;;;;;;;8.73;96.77;101672.97;5054992;28;20583;-78
2022/11/10 01:27:51;;;;;;;8.70;3.00;;;;;;;8.72;96.60;101671.31;5056267;28;20063;-78
2022/11/10 01:30:17;;;;;;;11.85;2.75;;;;;;;8.72;96.59;101671.31;5065130;28;20452;-78
2022/11/10 01:32:44;;;;;;;7.03;2.67;;;;;;;8.65;96.84;101672.59;5055668;28;20033;-78
2022/11/10 01:35:09;;;;;;;13.77;3.38;;;;;;;8.65;96.97;101670.00;5055018;28;20032;-78
2022/11/10 01:37:35;;;;;;;10.05;3.17;;;;;;;8.64;97.28;101678.69;5066061;28;20055;-78
2022/11/10 01:40:00;;;;;;;9.85;2.60;;;;;;;8.63;96.95;101671.84;5065670;28;20036;-78
2022/11/10 01:42:36;;;;;;;10.82;2.97;;;;;;;8.66;96.84;101667.34;5069471;28;20028;-78
2022/11/10 01:45:23;;;;;;;10.90;2.67;;;;;;;8.68;96.70;101675.81;5057159;28;20115;-78
2022/11/10 01:47:52;;;;;;;6.63;2.40;;;;;;;8.64;97.19;101678.69;5062559;28;20702;-78
2022/11/10 01:50:19;;;;;;;7.95;2.63;;;;;;;8.64;97.02;101679.50;5052012;28;20056;-79
2022/11/10 01:52:50;;;;;;;13.13;2.95;;;;;;;8.62;96.85;101670.19;5079206;28;20028;-78
2022/11/10 01:55:18;;;;;;;8.82;2.92;;;;;;;8.57;96.89;101662.72;5062017;28;20021;-78
2022/11/10 01:57:44;;;;;;;9.07;3.15;;;;;;;8.58;97.24;101668.72;5057293;28;20048;-78
2022/11/10 02:00:10;;;;;;;14.50;3.20;;;;;;;8.64;96.97;101663.16;5063746;28;20496;-78
2022/11/10 02:02:46;;;;;;;12.05;3.25;;;;;;;8.62;96.52;101665.84;5069702;28;20103;-78
2022/11/10 02:05:11;;;;;;;11.18;2.42;;;;;;;8.58;96.99;101673.88;5074001;28;20516;-78
2022/11/10 02:07:37;;;;;;;9.48;2.45;;;;;;;8.59;97.19;101680.72;5055360;28;20077;-78
2022/11/10 02:10:04;;;;;;;11.32;2.80;;;;;;;8.50;97.45;101667.41;5065986;28;20032;-78
2022/11/10 02:12:37;;;;;;;10.07;2.63;;;;;;;8.58;97.52;101686.81;5066485;28;20369;-78
2022/11/10 02:15:09;;;;;;;12.85;3.03;;;;;;;8.56;97.46;101691.25;5065286;28;20024;-78
2022/11/10 02:17:35;;;;;;;13.10;3.28;;;;;;;8.51;97.48;101694.94;5067196;28;20234;-78
2022/11/10 02:20:03;;;;;;;12.80;2.88;;;;;;;8.52;97.79;101699.19;5053167;28;20137;-77
2022/11/10 02:22:32;;;;;;;11.02;3.10;;;;;;;8.49;97.91;101707.13;5068594;28;20416;-78
2022/11/10 02:24:57;;;;;;;10.05;2.85;;;;;;;8.50;98.07;101707.97;5047901;28;20028;-79
2022/11/10 02:27:23;;;;;;;11.77;2.70;;;;;;;8.51;98.00;101710.44;5058330;28;20047;-78
2022/11/10 02:29:48;;;;;;;11.15;2.88;;;;;;;8.51;98.15;101718.19;5064406;28;20108;-78
2022/11/10 02:32:14;;;;;;;12.98;3.13;;;;;;;8.51;98.22;101715.63;5063678;28;20094;-78
2022/11/10 02:34:39;;;;;;;11.65;3.35;;;;;;;8.55;98.00;101725.78;5053031;28;20111;-78
2022/11/10 02:37:04;;;;;;;13.38;2.65;;;;;;;8.54;98.19;101726.69;5059535;28;20396;-78
2022/11/10 02:39:30;;;;;;;10.25;2.95;;;;;;;8.51;98.32;101720.78;5061072;28;20106;-79
2022/11/10 02:41:55;;;;;;;11.80;3.05;;;;;;;8.51;98.32;101731.13;5064617;28;20162;-78
2022/11/10 02:44:20;;;;;;;6.68;2.72;;;;;;;8.51;98.14;101725.13;5065761;28;20059;-78
2022/11/10 02:46:46;;;;;;;12.05;3.20;;;;;;;8.44;98.12;101719.50;5064945;28;20150;-78
2022/11/10 02:49:11;;;;;;;11.02;3.08;;;;;;;8.49;98.24;101727.81;5058469;28;20040;-78
2022/11/10 02:51:37;;;;;;;9.82;2.90;;;;;;;8.47;98.06;101727.03;5065110;28;20373;-80
2022/11/10 02:54:02;;;;;;;9.70;2.75;;;;;;;8.47;98.33;101737.38;5064415;28;20143;-78
2022/11/10 02:56:28;;;;;;;8.98;3.03;;;;;;;8.48;98.19;101741.63;5056833;28;20477;-78
2022/11/10 02:58:53;;;;;;;8.23;2.55;;;;;;;8.45;98.57;101735.81;5063940;28;20128;-78
2022/11/10 03:01:18;;;;;;;15.00;3.13;;;;;;;8.45;98.49;101735.81;5069453;28;20484;-77
2022/11/10 03:03:44;;;;;;;12.80;3.17;;;;;;;8.42;98.53;101731.66;5072524;28;20032;-78
2022/11/10 03:06:09;;;;;;;8.18;2.38;;;;;;;8.46;98.34;101738.31;5059006;28;20039;-78
2022/11/10 03:08:34;;;;;;;10.20;3.17;;;;;;;8.38;98.38;101724.19;5061568;28;20523;-78
2022/11/10 03:11:00;;;;;;;17.00;3.72;;;;;;;8.37;98.72;101728.53;5065601;28;20032;-78
2022/11/10 03:13:25;;;;;;;11.38;2.83;;;;;;;8.41;98.62;101739.50;5062864;28;20036;-79
2022/11/10 03:15:51;;;;;;;7.68;2.50;;;;;;;8.41;98.33;101750.66;5059173;28;20028;-78
2022/11/10 03:18:17;;;;;;;10.70;2.97;;;;;;;8.38;98.77;101750.88;5066543;28;20493;-78
2022/11/10 03:20:46;;;;;;;11.38;2.55;;;;;;;8.36;98.92;101752.69;5052702;28;20035;-79
2022/11/10 03:23:11;;;;;;;11.50;3.15;;;;;;;8.38;98.38;101768.97;5058059;28;20039;-78
2022/11/10 03:25:37;;;;;;;10.40;2.58;;;;;;;8.33;98.90;101755.44;5064464;28;20510;-78
2022/11/10 03:28:03;;;;;;;13.00;3.08;;;;;;;8.36;99.05;101768.19;5064841;28;20040;-78
2022/11/10 03:30:28;;;;;;;10.75;2.63;;;;;;;8.33;98.67;101768.34;5057411;28;20037;-78
2022/11/10 03:32:54;;;;;;;12.13;3.05;;;;;;;8.31;99.00;101765.00;5062091;28;20477;-78
2022/11/10 03:35:19;;;;;;;12.27;3.05;;;;;;;8.32;98.93;101766.69;5071212;28;20109;-78
2022/11/10 03:37:44;;;;;;;12.93;2.60;;;;;;;8.30;99.14;101760.75;5064341;28;20029;-79
2022/11/10 03:40:10;;;;;;;7.97;2.63;;;;;;;8.28;99.03;101762.59;5049948;28;20040;-79
2022/11/10 03:42:40;;;;;;;10.55;3.22;;;;;;;8.30;99.31;101773.69;5062971;28;20490;-80
2022/11/10 03:45:06;;;;;;;15.55;2.97;;;;;;;8.29;98.90;101782.38;5063849;28;20028;-78
2022/11/10 03:47:31;;;;;;;10.90;3.00;;;;;;;8.32;98.73;101786.53;5060114;28;20103;-78
2022/11/10 03:49:57;;;;;;;16.95;3.33;;;;;;;8.28;98.77;101785.03;5061091;28;20025;-78
2022/11/10 03:52:22;;;;;;;13.88;3.22;;;;;;;8.31;99.04;101797.78;5057784;28;20108;-78
2022/11/10 03:54:47;;;;;;;10.52;2.60;;;;;;;8.28;99.00;101796.22;5054243;28;20105;-78
2022/11/10 03:57:13;;;;;;;10.15;2.20;;;;;;;8.28;98.63;101790.22;5061816;28;20029;-78
2022/11/10 03:59:38;;;;;;;10.23;2.78;;;;;;;8.29;98.74;101792.69;5063399;28;20032;-78
2022/11/10 04:02:04;;;;;;;11.27;2.70;;;;;;;8.26;99.13;101787.72;5050600;28;20045;-78
2022/11/10 04:09:57;;;;;;;9.82;2.42;;;;;;;8.25;98.68;101815.28;5055944;28;20039;-78
2022/11/10 04:18:19;;;;;;;;;;;;;;;8.29;98.32;101852.16;5068956;28;20037;-78
2022/11/10 04:20:41;;;;;;;13.00;2.78;;;;;;;8.22;98.59;101848.25;5059913;28;19946;-78
2022/11/10 04:28:34;;;;;;;10.30;2.22;;;;;;;8.20;99.07;101870.72;5058597;28;20046;-79
2022/11/10 04:30:59;;;;;;;12.05;3.28;;;;;;;8.17;99.34;101868.34;5059970;28;20025;-78
2022/11/10 04:33:25;;;;;;;10.40;3.05;;;;;;;8.16;99.46;101864.91;5065717;28;20082;-77
2022/11/10 04:35:50;;;;;;;12.13;2.78;;;;;;;8.13;99.45;101865.06;5055167;28;20048;-78
2022/11/10 04:38:15;;;;;;;9.32;2.72;;;;;;;8.15;99.70;101868.44;5072040;28;20104;-78
2022/11/10 04:40:41;;;;;;;11.98;2.88;;;;;;;8.11;99.38;101871.25;5059237;28;20032;-78
2022/11/10 04:43:06;;;;;;;11.40;3.33;;;;;;;8.17;99.39;101883.84;5060097;28;20473;-78
2022/11/10 04:45:32;;;;;;;9.07;2.67;;;;;;;8.11;99.79;101886.75;5062156;28;20029;-78
2022/11/10 04:47:58;;;;;;;9.60;2.70;;;;;;;8.16;99.83;101895.09;5065668;28;20028;-78
2022/11/10 04:50:23;;;;;;;13.60;3.35;;;;;;;8.18;99.43;101888.09;5057003;28;20104;-79
2022/11/10 04:52:48;;;;;;;10.07;2.20;;;;;;;8.18;99.69;101901.84;5057821;28;20028;-78
2022/11/10 04:55:14;;;;;;;11.70;2.33;;;;;;;8.18;99.68;101899.25;5051883;28;20031;-78
2022/11/10 04:57:39;;;;;;;11.68;2.42;;;;;;;8.19;99.87;101905.25;5051848;28;20131;-78
2022/11/10 05:00:06;;;;;;;10.80;2.35;;;;;;;8.13;99.69;101895.25;5066813;28;20025;-78
2022/11/10 05:02:32;;;;;;;11.13;2.47;;;;;;;8.15;100.00;101899.44;5055807;28;20052;-77
2022/11/10 05:04:57;;;;;;;12.55;2.10;;;;;;;8.17;99.86;101896.75;5060446;28;20034;-78
2022/11/10 05:07:22;;;;;;;9.43;2.08;;;;;;;8.19;99.73;101894.91;5060504;28;20033;-78
2022/11/10 05:09:48;;;;;;;13.48;3.25;;;;;;;8.18;99.77;101888.09;5053786;28;20103;-78
2022/11/10 05:12:13;;;;;;;12.23;2.75;;;;;;;8.18;99.72;101888.91;5061486;28;20103;-78
2022/11/10 05:14:38;;;;;;;14.43;2.90;;;;;;;8.18;99.83;101885.50;5058568;28;20035;-77
2022/11/10 05:17:04;;;;;;;8.48;2.47;;;;;;;8.19;99.90;101895.75;5075693;28;20024;-77
2022/11/10 05:19:29;;;;;;;11.88;2.78;;;;;;;8.21;99.76;101898.28;5063626;28;20055;-78
2022/11/10 05:21:54;;;;;;;8.88;2.78;;;;;;;8.18;99.69;101893.25;5057045;28;20028;-78
2022/11/10 05:24:20;;;;;;;15.02;3.55;;;;;;;8.15;99.87;101901.19;5060044;28;20024;-78
2022/11/10 05:26:45;;;;;;;11.10;2.30;;;;;;;8.20;99.26;101912.09;5055811;28;20031;-78
2022/11/10 05:29:11;;;;;;;10.27;2.38;;;;;;;8.17;99.55;101907.09;5070195;28;20099;-77
2022/11/10 05:31:36;;;;;;;8.85;2.53;;;;;;;8.13;99.77;101906.41;5059776;28;20039;-77
2022/11/10 05:34:01;;;;;;;17.50;3.05;;;;;;;8.11;99.85;101902.25;5057353;28;20358;-78
2022/11/10 05:36:27;;;;;;;10.82;2.78;;;;;;;8.12;99.96;101906.50;5054967;28;20068;-78
2022/11/10 05:38:52;;;;;;;12.57;2.70;;;;;;;8.15;99.97;101921.88;5064391;28;20054;-77
2022/11/10 05:41:17;;;;;;;10.00;3.28;;;;;;;8.16;100.00;101915.78;5062485;28;20025;-78
2022/11/10 05:43:43;;;;;;;9.73;2.40;;;;;;;8.17;99.51;101927.78;5065865;28;20206;-77
2022/11/10 05:46:08;;;;;;;11.40;2.30;;;;;;;8.17;99.72;101927.78;5064332;28;20043;-77
2022/11/10 05:48:34;;;;;;;14.30;2.38;;;;;;;8.11;100.00;101917.75;5056862;28;20036;-78
2022/11/10 05:50:59;;;;;;;12.55;2.25;;;;;;;8.13;99.76;101921.09;5057010;28;20461;-77
2022/11/10 05:53:25;;;;;;;8.98;2.20;;;;;;;8.13;100.00;101932.25;5054448;28;20032;-77
2022/11/10 05:55:51;;;;;;;15.73;2.80;;;;;;;8.07;99.89;101916.25;5065800;28;20033;-76
2022/11/10 05:58:16;;;;;;;11.73;2.83;;;;;;;8.12;100.00;101934.94;5063919;28;20022;-77
2022/11/10 06:00:42;;;;;;;17.90;2.45;;;;;;;8.10;100.00;101926.44;5064610;28;20468;-77
2022/11/10 06:03:16;;;;;;;10.40;2.22;;;;;;;8.11;100.00;101933.28;5063641;28;20378;-77
2022/11/10 06:05:42;;;;;;;11.02;2.78;;;;;;;8.10;100.00;101937.59;5060509;28;20036;-78
2022/11/10 06:08:08;;;;;;;11.93;2.25;;;;;;;8.10;100.00;101939.34;5069676;28;20491;-78
2022/11/10 06:10:34;;;;;;;11.10;2.20;;;;;;;8.08;100.00;101943.75;5062555;28;20033;-78
2022/11/10 06:13:01;;;;;;;11.85;2.28;;;;;;;8.08;100.00;101943.75;5063031;28;20175;-78
2022/11/10 06:15:27;;;;;;;10.30;2.20;;;;;;;8.01;100.00;101926.91;5066544;28;20461;-78
2022/11/10 06:17:53;;;;;;;12.20;2.53;;;;;;;8.03;100.00;101950.91;5068486;28;20055;-78
2022/11/10 06:20:19;;;;;;;12.15;2.72;;;;;;;8.04;100.00;101948.28;5063353;28;20027;-78
2022/11/10 06:23:00;;;;;;;13.57;2.20;;;;;;;8.06;100.00;101950.75;5060584;28;20028;-78
2022/11/10 06:25:26;;;;;;;12.30;2.17;;;;;;;7.99;100.00;101945.91;5083245;28;20539;-78
2022/11/10 06:27:52;;;;;;;14.23;2.38;;;;;;;8.04;100.00;101962.94;5073934;28;20036;-77
2022/11/10 06:30:17;;;;;;;8.05;2.28;;;;;;;8.02;100.00;101969.91;5053233;28;20511;-78
2022/11/10 06:32:43;;;;;;;12.32;2.58;;;;;;;8.02;100.00;101975.09;5065014;28;20039;-78
2022/11/10 06:35:09;;;;;;;12.45;2.47;;;;;;;7.98;100.00;101964.94;5065495;28;20017;-78
2022/11/10 06:37:34;;;;;;;10.82;2.30;;;;;;;8.02;100.00;101975.09;5070535;28;20461;-78
2022/11/10 06:39:59;;;;;;;13.07;2.58;;;;;;;8.02;100.00;101995.75;5060878;28;20034;-78
2022/11/10 06:42:25;;;;;;;10.18;2.40;;;;;;;7.96;100.00;101986.56;5063716;28;20036;-78
2022/11/10 06:44:50;;;;;;;10.27;2.08;;;;;;;8.02;100.00;102000.91;5065592;28;20028;-77
2022/11/10 06:47:15;;;;;;;8.18;2.13;;;;;;;7.93;100.00;101995.31;5066086;28;21058;-78
2022/11/10 06:49:41;;;;;;;10.57;2.67;;;;;;;7.99;100.00;102010.50;5051115;28;20432;-78
2022/11/10 06:52:06;;;;;;;11.40;2.33;;;;;;;7.96;100.00;102018.41;5064219;28;20101;-78
2022/11/10 06:54:31;;;;;;;14.77;2.53;;;;;;;7.95;100.00;102011.56;5058777;28;20123;-78
2022/11/10 06:56:57;;;;;;;7.07;2.20;;;;;;;7.96;100.00;102013.22;5057988;28;20048;-78
2022/11/10 06:59:22;;;;;;;10.75;2.25;;;;;;;7.98;100.00;102016.59;5063073;28;20040;-78
2022/11/10 07:01:48;;;;;;;8.38;2.13;;;;;;;8.01;100.00;102025.91;5056316;28;20080;-77
2022/11/10 07:04:14;;;;;;;12.63;2.40;;;;;;;8.02;100.00;102031.91;5061653;28;20060;-77
2022/11/10 07:06:40;;;;;;;9.60;2.45;;;;;;;8.04;100.00;102027.53;5060418;28;20032;-78
2022/11/10 07:09:06;;;;;;;16.40;2.75;;;;;;;8.02;100.00;102032.75;5063048;28;20028;-78
2022/11/10 07:11:31;;;;;;;8.77;2.10;;;;;;;8.01;100.00;102032.84;5065881;28;20051;-78
2022/11/10 07:13:57;;;;;;;9.02;2.30;;;;;;;8.04;100.00;102045.63;5066715;28;20020;-78
2022/11/10 07:16:22;;;;;;;11.52;2.17;;;;;;;8.05;100.00;102062.78;5064841;28;20027;-78
2022/11/10 07:18:47;;;;;;;8.80;2.17;;;;;;;8.06;100.00;102064.44;5069403;28;20063;-78
2022/11/10 07:21:13;;;;;;;10.80;2.65;;;;;;;8.07;100.00;102076.44;5066580;28;20059;-78
2022/11/10 07:23:39;;;;;;;14.75;2.63;;;;;;;8.09;100.00;102070.31;5062157;28;20103;-78
2022/11/10 07:26:04;;;;;;;13.07;2.38;;;;;;;8.11;100.00;102083.97;5066607;28;20271;-78
2022/11/10 07:28:30;;;;;;;9.55;2.15;;;;;;;8.13;100.00;102086.47;5066622;28;20480;-78
2022/11/10 07:30:55;;;;;;;14.80;3.05;;;;;;;8.08;100.00;102081.53;5063486;28;20050;-78
2022/11/10 07:33:20;;;;;;;11.05;2.42;;;;;;;8.10;100.00;102082.31;5068113;28;20104;-77
2022/11/10 07:35:55;;;;;;;12.98;2.30;;;;;;;8.14;100.00;102075.22;5059181;28;20032;-78
2022/11/10 07:38:20;;;;;;;12.40;2.67;;;;;;;8.13;100.00;102076.13;5056326;28;20024;-78
2022/11/10 07:40:49;;;;;;;15.82;2.58;;;;;;;8.17;100.00;102083.66;5047817;28;20033;-78
2022/11/10 07:43:14;;;;;;;13.43;2.47;;;;;;;8.15;100.00;102084.66;5051642;28;20555;-78
2022/11/10 07:45:40;;;;;;;11.20;2.45;;;;;;;8.19;100.00;102083.56;5053962;28;20072;-78
2022/11/10 07:48:06;;;;;;;12.75;2.72;;;;;;;8.13;100.00;102081.31;5054780;28;20030;-78
2022/11/10 07:50:32;;;;;;;10.95;2.33;;;;;;;8.23;100.00;102098.00;5065147;28;20024;-78
2022/11/10 07:53:21;;;;;;;25.92;2.90;;;;;;;8.22;100.00;102091.19;5073415;28;20016;-79
2022/11/10 07:55:46;;;;;;;14.68;2.80;;;;;;;8.20;100.00;102078.34;5072096;28;20028;-77
2022/11/10 07:58:14;;;;;;;9.27;2.17;;;;;;;8.28;100.00;102090.88;5060677;28;20029;-79
2022/11/10 08:00:41;;;;;;;10.50;2.10;;;;;;;8.27;100.00;102096.94;5063777;28;20077;-80
2022/11/10 08:03:10;;;;;;;9.27;2.83;;;;;;;8.30;100.00;102094.19;5058915;28;20055;-79
2022/11/10 08:05:35;;;;;;;11.63;2.95;;;;;;;8.33;100.00;102114.72;5062461;28;20079;-80
2022/11/10 08:08:02;;;;;;;10.30;3.25;;;;;;;8.34;100.00;102121.56;5056346;28;20063;-80
2022/11/10 08:10:28;;;;;;;9.75;2.40;;;;;;;8.35;100.00;102123.22;5061780;28;20044;-80
2022/11/10 08:12:58;;;;;;;10.65;2.50;;;;;;;8.38;100.00;102123.13;5064007;28;20035;-78
2022/11/10 08:15:26;;;;;;;11.15;2.45;;;;;;;8.42;100.00;102134.13;5058589;28;20124;-79
2022/11/10 08:17:56;;;;;;;14.63;2.80;;;;;;;8.45;100.00;102129.63;5063585;28;20032;-78
2022/11/10 08:20:22;;;;;;;12.88;3.42;;;;;;;8.42;100.00;102122.03;5060774;28;20533;-79
2022/11/10 08:22:47;;;;;;;14.82;2.53;;;;;;;8.49;100.00;102138.91;5057689;28;20096;-77
2022/11/10 08:25:12;;;;;;;17.50;3.10;;;;;;;8.49;100.00;102133.75;5054524;28;20067;-79
2022/11/10 08:27:38;;;;;;;13.50;3.45;;;;;;;8.56;100.00;102123.06;5056979;28;20031;-76
2022/11/10 08:30:04;;;;;;;14.77;3.28;;;;;;;8.60;100.00;102127.16;5055194;28;20515;-78
2022/11/10 08:32:29;;;;;;;11.80;2.55;;;;;;;8.59;100.00;102120.31;5054440;28;20107;-78
2022/11/10 08:34:54;;;;;;;11.70;3.38;;;;;;;8.68;100.00;102125.00;5053319;28;20024;-78
2022/11/10 08:37:20;;;;;;;11.48;2.55;;;;;;;8.72;100.00;102126.53;5068856;28;20029;-77
2022/11/10 08:39:45;;;;;;;10.27;3.00;;;;;;;8.78;100.00;102136.56;5053604;28;20461;-79
2022/11/10 08:42:10;;;;;;;13.13;2.72;;;;;;;8.82;100.00;102158.72;5058622;28;20385;-78
2022/11/10 08:44:36;;;;;;;12.48;2.70;;;;;;;8.84;100.00;102140.56;5049535;28;20119;-80
2022/11/10 08:47:01;;;;;;;11.48;3.13;;;;;;;8.92;100.00;102144.41;5066419;28;20543;-78
2022/11/10 08:49:26;;;;;;;14.35;3.38;;;;;;;8.97;100.00;102152.75;5058797;28;20032;-79
2022/11/10 08:51:52;;;;;;;8.00;2.72;;;;;;;9.02;100.00;102150.75;5045525;28;20033;-80
2022/11/10 08:54:17;;;;;;;13.63;3.05;;;;;;;9.13;100.00;102157.13;5050164;28;20020;-79
2022/11/10 08:56:42;;;;;;;7.40;2.10;;;;;;;9.22;100.00;102156.59;5052958;28;20592;-79
2022/11/10 08:59:08;;;;;;;12.77;3.08;;;;;;;9.28;100.00;102145.91;5061730;28;20036;-78
2022/11/10 09:01:33;;;;;;;10.43;3.13;;;;;;;9.30;100.00;102154.44;5063125;28;20048;-77
2022/11/10 09:03:58;;;;;;;15.27;3.28;;;;;;;9.37;99.83;102163.53;5059901;28;20032;-78
2022/11/10 09:06:24;;;;;;;9.20;2.70;;;;;;;9.43;100.00;102160.59;5062810;28;20116;-77
2022/11/10 09:08:49;;;;;;;11.75;2.70;;;;;;;9.52;100.00;102175.66;5062503;28;20136;-79
2022/11/10 09:11:15;;;;;;;12.38;3.20;;;;;;;9.57;99.30;102171.00;5052624;28;20116;-78
2022/11/10 09:13:40;;;;;;;10.00;2.92;;;;;;;9.64;99.37;102178.47;5061986;28;20090;-81
2022/11/10 09:16:06;;;;;;;15.25;3.38;;;;;;;9.66;99.98;102176.63;5064609;28;20074;-81
2022/11/10 09:18:32;;;;;;;14.15;3.28;;;;;;;9.75;99.03;102186.47;5063705;28;20503;-82
2022/11/10 09:20:57;;;;;;;13.02;3.35;;;;;;;9.79;99.27;102185.34;5062924;28;20427;-82
2022/11/10 09:23:23;;;;;;;15.25;3.03;;;;;;;9.86;98.57;102189.25;5063222;28;20195;-77
2022/11/10 09:25:53;;;;;;;8.63;2.70;;;;;;;9.93;99.03;102188.03;5058487;28;20032;-77
2022/11/10 09:28:19;;;;;;;10.18;2.90;;;;;;;9.96;98.71;102187.81;5063490;28;20062;-78
2022/11/10 09:30:46;;;;;;;15.43;3.75;;;;;;;10.03;98.32;102189.13;5066755;28;20039;-76
2022/11/10 09:33:12;;;;;;;9.35;2.90;;;;;;;10.11;98.72;102199.09;5056165;28;20024;-76
2022/11/10 09:35:37;;;;;;;9.25;2.97;;;;;;;10.13;97.41;102196.41;5063566;28;20529;-75
2022/11/10 09:38:03;;;;;;;19.30;3.67;;;;;;;10.23;97.49;102200.13;5067185;28;20028;-76
2022/11/10 09:41:04;;;;;;;12.30;3.15;;;;;;;10.30;97.49;102204.06;5068111;28;20485;-78
2022/11/10 09:43:57;;;;;;;12.30;3.25;;;;;;;10.39;96.98;102213.91;5064467;28;20016;-76
2022/11/10 09:46:26;;;;;;;13.35;3.25;;;;;;;10.42;97.04;102213.72;5064633;28;20032;-76
2022/11/10 09:49:05;;;;;;;11.23;2.95;;;;;;;10.47;96.35;102211.69;5057219;28;20108;-76
2022/11/10 09:51:38;;;;;;;14.13;4.13;;;;;;;10.52;95.50;102214.84;5057923;28;20047;-76
2022/11/10 09:54:32;;;;;;;15.15;3.30;;;;;;;10.57;96.34;102202.44;5051053;28;20029;-76
2022/11/10 09:56:59;;;;;;;10.80;3.05;;;;;;;10.62;94.90;102210.78;5050448;28;20028;-77
2022/11/10 09:59:33;;;;;;;9.52;2.90;;;;;;;10.69;94.89;102213.03;5059602;28;20093;-76
2022/11/10 10:02:09;;;;;;;14.77;3.75;;;;;;;10.75;94.92;102210.06;5047769;28;20407;-76
2022/11/10 10:04:56;;;;;;;12.05;2.72;;;;;;;10.81;94.65;102217.47;5057528;28;20056;-75
2022/11/10 10:07:28;;;;;;;9.50;2.90;;;;;;;10.87;94.68;102220.53;5054800;28;20047;-77
2022/11/10 10:10:00;;;;;;;11.23;3.25;;;;;;;10.95;94.40;102237.38;5072863;28;20117;-76
2022/11/10 10:12:46;;;;;;;14.85;3.35;;;;;;;10.98;94.74;102243.25;5061839;28;20055;-75
2022/11/10 10:15:37;;;;;;;12.57;3.03;;;;;;;11.05;94.16;102247.13;5060441;28;20048;-76
2022/11/10 10:18:10;;;;;;;11.48;2.80;;;;;;;11.11;94.15;102254.53;5061210;28;20025;-75
2022/11/10 10:20:38;;;;;;;14.82;3.00;;;;;;;11.21;93.43;102256.59;5071615;28;20039;-75
2022/11/10 10:23:27;;;;;;;13.07;3.53;;;;;;;11.29;93.21;102251.75;5066195;28;20060;-77
2022/11/10 10:25:53;;;;;;;15.75;3.63;;;;;;;11.31;92.66;102247.31;5052396;28;20032;-76
2022/11/10 10:28:27;;;;;;;12.98;3.15;;;;;;;11.38;92.22;102261.56;5064248;28;20029;-76
2022/11/10 10:31:00;;;;;;;11.13;2.65;;;;;;;11.36;91.92;102266.03;5067572;28;20069;-78
2022/11/10 10:33:27;;;;;;;12.98;2.95;;;;;;;11.44;92.26;102266.38;5059198;28;20040;-76
2022/11/10 10:35:52;;;;;;;12.85;3.00;;;;;;;11.48;91.94;102267.88;5063783;28;20060;-76
2022/11/10 10:38:33;;;;;;;13.70;2.72;;;;;;;11.55;91.53;102284.75;5065355;28;20060;-76
2022/11/10 10:41:14;;;;;;;11.10;2.78;;;;;;;11.59;91.31;102291.44;5050878;28;20029;-76
2022/11/10 10:43:52;;;;;;;10.65;2.65;;;;;;;11.63;91.34;102286.84;5055121;28;20032;-76
2022/11/10 10:46:19;;;;;;;11.63;3.25;;;;;;;11.69;91.17;102286.47;5066980;28;20147;-76
2022/11/10 10:48:44;;;;;;;14.23;3.00;;;;;;;11.78;90.92;102290.25;5066196;28;20032;-76
2022/11/10 10:51:25;;;;;;;8.00;2.53;;;;;;;11.83;90.18;102294.28;5064589;28;20025;-77
2022/11/10 10:53:51;;;;;;;13.50;2.95;;;;;;;11.93;91.08;102290.16;5065205;28;20032;-77
2022/11/10 10:56:21;;;;;;;13.02;3.15;;;;;;;11.96;91.08;102278.72;5053415;28;20056;-77
2022/11/10 10:58:51;;;;;;;8.07;1.98;;;;;;;12.06;89.05;102287.59;5064687;28;20039;-75
2022/11/10 11:01:16;;;;;;;12.43;2.70;;;;;;;12.15;88.42;102279.19;5057353;28;20056;-77
2022/11/10 11:03:52;;;;;;;11.13;2.88;;;;;;;12.19;88.85;102275.47;5066158;28;20074;-76
2022/11/10 11:06:25;;;;;;;15.23;2.55;;;;;;;12.25;88.45;102273.41;5059368;28;20035;-78
2022/11/10 11:08:59;;;;;;;11.40;2.70;;;;;;;12.30;88.29;102271.34;5064841;28;20028;-77
2022/11/10 11:11:30;;;;;;;8.70;2.50;;;;;;;12.39;88.18;102268.13;5049886;28;20024;-77
2022/11/10 11:14:19;;;;;;;13.75;3.17;;;;;;;12.47;87.56;102278.84;5072845;28;20483;-76
2022/11/10 11:17:24;;;;;;;14.43;2.45;;;;;;;12.54;87.31;102280.09;5077312;28;20035;-76
2022/11/10 11:19:51;;;;;;;11.07;2.90;;;;;;;12.55;86.00;102276.56;5047403;28;20044;-77
2022/11/10 11:22:25;;;;;;;11.10;3.05;;;;;;;12.65;86.69;102277.63;5062197;28;20492;-77
2022/11/10 11:25:14;;;;;;;11.35;2.78;;;;;;;12.74;86.66;102281.38;5066435;28;20038;-76
2022/11/10 11:27:52;;;;;;;10.27;2.67;;;;;;;12.85;86.72;102288.47;5053702;28;20033;-77
2022/11/10 11:30:22;;;;;;;9.25;2.92;;;;;;;12.86;84.87;102284.94;5070836;28;20028;-77
2022/11/10 11:32:54;;;;;;;9.90;2.67;;;;;;;12.93;84.93;102291.38;5072126;28;20457;-76
2022/11/10 11:35:25;;;;;;;9.85;2.30;;;;;;;12.94;84.96;102298.25;5058374;28;20056;-76
2022/11/10 11:37:51;;;;;;;10.75;2.75;;;;;;;12.93;84.29;102297.41;5081054;28;20385;-76
2022/11/10 11:40:44;;;;;;;6.88;1.95;;;;;;;12.99;84.26;102311.81;5057179;28;20278;-76
2022/11/10 11:43:10;;;;;;;10.32;2.45;;;;;;;12.98;83.90;102310.97;5047783;28;20437;-76
2022/11/10 11:45:54;;;;;;;7.93;2.08;;;;;;;13.02;84.33;102307.22;5051887;28;20023;-76
2022/11/10 11:48:19;;;;;;;12.68;2.85;;;;;;;13.06;84.27;102323.47;5050963;28;20037;-76